createdAt,value
2023-04-28T00:00:41.174Z,17.79
2023-04-28T00:03:20.053Z,17.77
2023-04-28T00:05:49.647Z,17.71
2023-04-28T00:08:17.561Z,17.83
2023-04-28T00:10:45.054Z,17.63
2023-04-28T00:13:12.996Z,17.78
2023-04-28T00:15:40.610Z,17.77
2023-04-28T00:18:08.513Z,17.71
2023-04-28T00:20:36.029Z,17.54
2023-04-28T00:23:04.008Z,17.49
2023-04-28T00:25:31.512Z,17.63
2023-04-28T00:27:59.291Z,17.61
2023-04-28T00:30:26.748Z,17.42
2023-04-28T00:32:54.939Z,17.40
2023-04-28T00:35:22.716Z,17.37
2023-04-28T00:37:50.583Z,17.31
2023-04-28T00:40:18.435Z,17.44
2023-04-28T00:42:46.275Z,17.37
2023-04-28T00:45:13.683Z,17.41
2023-04-28T00:47:42.434Z,17.36
2023-04-28T00:50:10.750Z,17.15
2023-04-28T00:52:39.002Z,17.27
2023-04-28T00:55:08.065Z,17.36
2023-04-28T00:57:36.273Z,17.21
2023-04-28T01:00:04.420Z,17.18
2023-04-28T01:02:32.638Z,17.32
2023-04-28T01:05:00.474Z,16.89
2023-04-28T01:07:28.814Z,16.86
2023-04-28T01:09:56.809Z,16.94
2023-04-28T01:12:31.073Z,16.90
2023-04-28T01:14:59.698Z,16.60
2023-04-28T01:17:28.620Z,16.81
2023-04-28T01:19:56.518Z,16.62
2023-04-28T01:22:24.435Z,16.49
2023-04-28T01:24:52.021Z,16.63
2023-04-28T01:27:19.817Z,16.44
2023-04-28T01:29:47.331Z,16.70
2023-04-28T01:32:16.235Z,16.68
2023-04-28T01:34:43.778Z,16.69
2023-04-28T01:37:11.667Z,16.67
2023-04-28T01:39:39.161Z,16.51
2023-04-28T01:42:07.175Z,16.71
2023-04-28T01:44:35.206Z,16.67
2023-04-28T01:47:03.044Z,16.55
2023-04-28T01:49:30.996Z,16.65
2023-04-28T01:51:58.832Z,16.53
2023-04-28T01:54:27.491Z,16.59
2023-04-28T01:56:55.881Z,16.48
2023-04-28T01:59:25.206Z,16.52
2023-04-28T02:01:53.163Z,16.49
2023-04-28T02:04:21.602Z,16.50
2023-04-28T02:06:50.798Z,16.51
2023-04-28T02:09:18.389Z,16.68
2023-04-28T02:11:46.235Z,16.48
2023-04-28T02:14:13.876Z,16.61
2023-04-28T02:16:42.083Z,16.41
2023-04-28T02:19:09.674Z,16.35
2023-04-28T02:21:38.519Z,15.56
2023-04-28T02:24:08.287Z,15.61
2023-04-28T02:26:36.109Z,15.59
2023-04-28T02:29:06.536Z,15.34
2023-04-28T02:31:34.489Z,15.17
2023-04-28T02:34:02.063Z,15.48
2023-04-28T02:36:29.942Z,15.53
2023-04-28T02:38:57.790Z,15.33
2023-04-28T02:41:26.653Z,15.41
2023-04-28T02:43:54.169Z,15.42
2023-04-28T02:46:22.034Z,14.75
2023-04-28T02:48:49.603Z,14.78
2023-04-28T02:51:18.626Z,14.35
2023-04-28T02:53:46.802Z,14.87
2023-04-28T02:56:14.739Z,14.50
2023-04-28T02:58:42.261Z,14.38
2023-04-28T03:01:10.071Z,14.61
2023-04-28T03:03:37.859Z,14.49
2023-04-28T03:06:06.001Z,14.18
2023-04-28T03:08:33.516Z,14.04
2023-04-28T03:11:01.434Z,14.55
2023-04-28T03:13:30.199Z,14.38
2023-04-28T03:15:58.561Z,14.23
2023-04-28T03:18:26.150Z,14.25
2023-04-28T03:20:55.153Z,14.39
2023-04-28T03:23:22.701Z,14.63
2023-04-28T03:25:50.629Z,14.70
2023-04-28T03:28:18.343Z,14.52
2023-04-28T03:30:46.696Z,14.56
2023-04-28T03:33:14.332Z,14.69
2023-04-28T03:35:42.292Z,14.72
2023-04-28T03:38:09.957Z,14.80
2023-04-28T03:40:37.972Z,15.04
2023-04-28T03:43:11.256Z,14.92
2023-04-28T03:45:46.126Z,14.94
2023-04-28T03:48:13.629Z,14.93
2023-04-28T03:50:42.730Z,14.83
2023-04-28T03:53:10.253Z,14.82
2023-04-28T03:55:38.994Z,14.85
2023-04-28T03:58:06.496Z,15.14
2023-04-28T04:00:35.685Z,14.96
2023-04-28T04:03:03.899Z,15.20
2023-04-28T04:05:32.090Z,15.27
2023-04-28T04:07:59.762Z,15.17
2023-04-28T04:10:27.963Z,15.35
2023-04-28T04:12:55.778Z,15.18
2023-04-28T04:15:23.695Z,15.33
2023-04-28T04:17:51.312Z,15.19
2023-04-28T04:20:19.151Z,15.43
2023-04-28T04:22:47.076Z,15.46
2023-04-28T04:25:16.031Z,15.56
2023-04-28T04:27:47.612Z,15.56
2023-04-28T04:30:15.743Z,15.41
2023-04-28T04:32:43.453Z,15.45
2023-04-28T04:35:11.473Z,15.31
2023-04-28T04:37:39.183Z,15.59
2023-04-28T04:40:07.360Z,15.59
2023-04-28T04:42:40.676Z,15.48
2023-04-28T04:45:12.471Z,15.57
2023-04-28T04:47:40.566Z,15.61
2023-04-28T04:50:08.742Z,15.85
2023-04-28T04:52:36.272Z,15.74
2023-04-28T04:55:04.916Z,15.58
2023-04-28T04:57:33.560Z,15.80
2023-04-28T05:00:12.007Z,15.78
2023-04-28T05:02:40.223Z,15.81
2023-04-28T05:05:20.469Z,15.94
2023-04-28T05:08:01.202Z,15.80
2023-04-28T05:10:29.514Z,15.70
2023-04-28T05:12:57.358Z,15.88
2023-04-28T05:15:25.547Z,16.03
2023-04-28T05:18:15.413Z,16.13
2023-04-28T05:20:43.409Z,16.18
2023-04-28T05:23:12.314Z,16.31
2023-04-28T05:25:41.698Z,16.11
2023-04-28T05:28:10.695Z,16.30
2023-04-28T05:30:38.685Z,16.53
2023-04-28T05:33:06.251Z,16.48
2023-04-28T05:35:34.328Z,16.48
2023-04-28T05:38:02.243Z,16.60
2023-04-28T05:40:30.252Z,16.62
2023-04-28T05:42:57.822Z,16.76
2023-04-28T05:45:25.958Z,16.79
2023-04-28T05:47:55.053Z,16.87
2023-04-28T05:50:23.451Z,17.01
2023-04-28T05:52:51.588Z,16.78
2023-04-28T05:55:19.577Z,16.84
2023-04-28T05:57:53.130Z,17.03
2023-04-28T06:00:22.340Z,17.09
2023-04-28T06:02:53.663Z,17.31
2023-04-28T06:05:23.386Z,17.43
2023-04-28T06:07:55.124Z,17.81
2023-04-28T06:10:26.259Z,17.66
2023-04-28T06:12:53.832Z,17.85
2023-04-28T06:15:21.693Z,17.69
2023-04-28T06:17:49.450Z,18.07
2023-04-28T06:20:19.549Z,18.15
2023-04-28T06:22:47.195Z,18.18
2023-04-28T06:25:15.153Z,18.14
2023-04-28T06:27:46.304Z,18.13
2023-04-28T06:30:18.954Z,18.17
2023-04-28T06:32:48.482Z,18.24
2023-04-28T06:35:16.761Z,18.12
2023-04-28T06:37:44.472Z,18.11
2023-04-28T06:40:13.714Z,18.13
2023-04-28T06:42:51.036Z,18.31
2023-04-28T06:45:26.832Z,18.70
2023-04-28T06:47:57.585Z,18.63
2023-04-28T06:50:25.541Z,18.75
2023-04-28T06:52:53.240Z,18.82
2023-04-28T06:55:22.384Z,18.95
2023-04-28T06:57:51.208Z,19.08
2023-04-28T07:00:19.115Z,19.01
2023-04-28T07:02:46.823Z,19.19
2023-04-28T07:05:16.553Z,19.21
2023-04-28T07:07:45.701Z,19.54
2023-04-28T07:10:15.935Z,19.75
2023-04-28T07:12:43.527Z,20.00
2023-04-28T07:15:12.951Z,20.00
2023-04-28T07:17:40.803Z,19.88
2023-04-28T07:20:09.010Z,19.98
2023-04-28T07:22:36.710Z,20.11
2023-04-28T07:25:04.782Z,20.10
2023-04-28T07:27:32.468Z,20.27
2023-04-28T07:30:03.095Z,20.28
2023-04-28T07:32:37.021Z,20.29
2023-04-28T07:35:05.015Z,20.48
2023-04-28T07:37:33.214Z,20.63
2023-04-28T07:40:01.083Z,20.93
2023-04-28T07:42:28.662Z,20.94
2023-04-28T07:44:58.509Z,21.16
2023-04-28T07:47:26.947Z,21.27
2023-04-28T07:49:55.942Z,21.20
2023-04-28T07:52:23.460Z,21.31
2023-04-28T07:54:51.320Z,21.32
2023-04-28T07:57:18.809Z,21.12
2023-04-28T07:59:46.712Z,20.77
2023-04-28T08:02:15.533Z,21.09
2023-04-28T08:04:43.532Z,20.98
2023-04-28T08:07:11.159Z,21.03
2023-04-28T08:09:42.159Z,20.94
2023-04-28T08:12:09.780Z,21.22
2023-04-28T08:14:37.677Z,20.89
2023-04-28T08:17:06.468Z,20.66
2023-04-28T08:19:34.520Z,20.97
2023-04-28T08:22:06.287Z,21.20
2023-04-28T08:24:37.067Z,21.01
2023-04-28T08:27:04.747Z,20.80
2023-04-28T08:29:32.784Z,21.13
2023-04-28T08:32:02.127Z,20.79
2023-04-28T08:34:30.087Z,21.67
2023-04-28T08:36:57.564Z,21.87
2023-04-28T08:39:27.565Z,21.69
2023-04-28T08:41:55.162Z,22.05
2023-04-28T08:44:24.168Z,21.38
2023-04-28T08:46:54.624Z,21.68
2023-04-28T08:49:23.789Z,22.24
2023-04-28T08:51:56.027Z,22.24
2023-04-28T08:54:28.354Z,22.23
2023-04-28T08:56:57.708Z,22.54
2023-04-28T08:59:26.004Z,22.46
2023-04-28T09:01:53.638Z,22.49
2023-04-28T09:04:23.119Z,22.09
2023-04-28T09:06:51.088Z,22.94
2023-04-28T09:09:20.368Z,23.40
2023-04-28T09:12:05.863Z,22.59
2023-04-28T09:14:37.465Z,22.80
2023-04-28T09:17:14.915Z,22.97
2023-04-28T09:19:45.618Z,23.07
2023-04-28T09:24:44.008Z,23.98
2023-04-28T09:27:12.225Z,23.69
2023-04-28T09:29:52.041Z,23.57
2023-04-28T09:32:21.109Z,23.78
2023-04-28T09:34:53.993Z,23.03
2023-04-28T09:37:22.828Z,23.47
2023-04-28T09:39:52.033Z,23.90
2023-04-28T09:42:38.345Z,24.08
2023-04-28T09:45:09.174Z,24.49
2023-04-28T09:47:41.096Z,23.94
2023-04-28T09:50:12.634Z,24.77
2023-04-28T09:52:42.134Z,24.93
2023-04-28T09:55:11.201Z,24.62
2023-04-28T09:57:39.230Z,24.39
2023-04-28T10:00:09.742Z,24.23
2023-04-28T10:05:11.743Z,23.69
2023-04-28T10:07:40.751Z,24.26
2023-04-28T10:10:09.964Z,24.38
2023-04-28T10:12:39.294Z,23.77
2023-04-28T10:15:08.580Z,24.06
2023-04-28T10:17:37.049Z,24.86
2023-04-28T10:20:05.521Z,25.36
2023-04-28T10:22:43.387Z,24.75
2023-04-28T10:25:12.063Z,24.26
2023-04-28T10:27:43.926Z,23.96
2023-04-28T10:30:19.322Z,24.09
2023-04-28T10:33:15.081Z,24.78
2023-04-28T10:35:44.855Z,25.51
2023-04-28T10:38:14.603Z,26.00
2023-04-28T10:40:43.561Z,24.32
2023-04-28T10:43:12.405Z,25.33
2023-04-28T10:46:01.352Z,25.14
2023-04-28T10:48:29.554Z,25.28
2023-04-28T10:50:57.408Z,24.94
2023-04-28T10:53:45.058Z,24.84
2023-04-28T10:56:15.124Z,24.57
2023-04-28T10:58:43.923Z,24.18
2023-04-28T11:01:22.075Z,24.20
2023-04-28T11:03:52.621Z,25.43
2023-04-28T11:06:24.039Z,24.48
2023-04-28T11:08:51.793Z,25.78
2023-04-28T11:11:21.337Z,26.16
2023-04-28T11:13:49.477Z,24.84
2023-04-28T11:16:19.956Z,24.66
2023-04-28T11:19:04.649Z,25.50
2023-04-28T11:21:33.169Z,26.20
2023-04-28T11:24:00.893Z,24.70
2023-04-28T11:26:29.241Z,25.06
2023-04-28T11:28:57.490Z,25.24
2023-04-28T11:31:26.334Z,25.44
2023-04-28T11:33:56.070Z,25.39
2023-04-28T11:36:34.033Z,25.99
2023-04-28T11:39:05.163Z,25.19
2023-04-28T11:41:38.392Z,25.83
2023-04-28T11:44:16.175Z,26.12
2023-04-28T11:46:53.972Z,25.92
2023-04-28T11:49:24.713Z,27.27
2023-04-28T11:51:53.012Z,28.08
2023-04-28T11:54:27.492Z,28.30
2023-04-28T11:56:57.817Z,28.42
2023-04-28T11:59:27.118Z,27.61
2023-04-28T12:01:59.891Z,27.84
2023-04-28T12:04:38.003Z,26.46
2023-04-28T12:07:13.609Z,26.46
2023-04-28T12:09:45.464Z,26.49
2023-04-28T12:12:17.269Z,26.99
2023-04-28T12:15:02.483Z,26.32
2023-04-28T12:17:34.846Z,26.25
2023-04-28T12:20:04.603Z,25.88
2023-04-28T12:22:43.532Z,25.90
2023-04-28T12:25:12.689Z,25.90
2023-04-28T12:27:42.272Z,26.39
2023-04-28T12:30:16.653Z,25.98
2023-04-28T12:32:44.633Z,25.44
2023-04-28T12:35:12.263Z,25.33
2023-04-28T12:37:42.009Z,26.19
2023-04-28T12:40:10.820Z,25.73
2023-04-28T12:42:39.770Z,26.01
2023-04-28T12:45:07.992Z,26.06
2023-04-28T12:47:36.092Z,25.39
2023-04-28T12:50:03.913Z,26.25
2023-04-28T12:52:33.994Z,25.89
2023-04-28T12:55:02.124Z,26.41
2023-04-28T12:57:30.126Z,25.39
2023-04-28T12:59:57.787Z,26.50
2023-04-28T13:02:26.986Z,28.49
2023-04-28T13:04:54.833Z,29.26
2023-04-28T13:07:23.065Z,29.73
2023-04-28T13:09:50.575Z,28.25
2023-04-28T13:12:20.008Z,27.59
2023-04-28T13:14:47.615Z,26.99
2023-04-28T13:17:15.617Z,27.83
2023-04-28T13:19:44.033Z,27.21
2023-04-28T13:22:12.533Z,29.17
2023-04-28T13:24:40.224Z,29.35
2023-04-28T13:27:10.365Z,30.07
2023-04-28T13:29:38.185Z,28.43
2023-04-28T13:32:06.465Z,28.39
2023-04-28T13:34:34.223Z,28.96
2023-04-28T13:37:02.149Z,28.38
2023-04-28T13:39:29.820Z,26.41
2023-04-28T13:41:58.863Z,27.22
2023-04-28T13:44:26.558Z,28.74
2023-04-28T13:46:54.898Z,28.12
2023-04-28T13:49:24.460Z,27.91
2023-04-28T13:51:52.349Z,28.06
2023-04-28T13:54:20.319Z,28.93
2023-04-28T13:56:49.846Z,28.93
2023-04-28T13:59:17.470Z,28.31
2023-04-28T14:01:45.786Z,27.47
2023-04-28T14:04:13.772Z,27.46
2023-04-28T14:06:42.435Z,28.10
2023-04-28T14:09:10.595Z,28.35
2023-04-28T14:11:39.635Z,27.26
2023-04-28T14:14:07.347Z,27.05
2023-04-28T14:16:35.346Z,28.16
2023-04-28T14:19:03.021Z,27.74
2023-04-28T14:21:33.364Z,28.06
2023-04-28T14:24:00.949Z,29.42
2023-04-28T14:26:29.125Z,29.01
2023-04-28T14:28:56.904Z,28.62
2023-04-28T14:31:25.056Z,29.48
2023-04-28T14:33:52.706Z,28.86
2023-04-28T14:36:20.809Z,28.84
2023-04-28T14:38:48.374Z,29.34
2023-04-28T14:41:16.545Z,29.18
2023-04-28T14:43:45.034Z,28.34
2023-04-28T14:46:13.058Z,27.75
2023-04-28T14:48:40.711Z,27.69
2023-04-28T14:51:08.592Z,28.36
2023-04-28T14:53:36.195Z,29.18
2023-04-28T14:56:17.343Z,30.54
2023-04-28T14:58:46.407Z,30.07
2023-04-28T15:01:14.511Z,29.77
2023-04-28T15:03:43.681Z,28.79
2023-04-28T15:06:12.257Z,27.89
2023-04-28T15:08:40.988Z,27.73
2023-04-28T15:11:08.817Z,27.99
2023-04-28T15:13:36.534Z,28.93
2023-04-28T15:16:05.553Z,27.58
2023-04-28T15:18:33.229Z,27.48
2023-04-28T15:21:01.381Z,28.09
2023-04-28T15:23:29.051Z,27.62
2023-04-28T15:25:56.865Z,27.25
2023-04-28T15:28:25.016Z,27.21
2023-04-28T15:30:54.455Z,27.43
2023-04-28T15:33:24.403Z,28.31
2023-04-28T15:35:52.765Z,27.99
2023-04-28T15:38:20.537Z,27.82
2023-04-28T15:40:49.657Z,27.41
2023-04-28T15:43:17.195Z,26.90
2023-04-28T15:45:47.263Z,27.53
2023-04-28T15:48:15.424Z,26.64
2023-04-28T15:50:43.816Z,26.36
2023-04-28T15:53:11.611Z,26.56
2023-04-28T15:55:39.576Z,26.79
2023-04-28T15:58:09.645Z,27.76
2023-04-28T16:00:40.769Z,27.74
2023-04-28T16:03:08.618Z,26.96
2023-04-28T16:05:38.636Z,27.16
2023-04-28T16:08:06.317Z,27.33
2023-04-28T16:10:35.291Z,26.98
2023-04-28T16:13:03.369Z,26.67
2023-04-28T16:15:31.217Z,27.07
2023-04-28T16:17:58.866Z,26.90
2023-04-28T16:20:28.158Z,26.40
2023-04-28T16:22:56.381Z,26.16
2023-04-28T16:25:24.406Z,26.18
2023-04-28T16:27:52.027Z,26.47
2023-04-28T16:30:20.161Z,26.06
2023-04-28T16:32:47.708Z,26.59
2023-04-28T16:35:16.833Z,26.46
2023-04-28T16:37:44.662Z,26.78
2023-04-28T16:40:12.891Z,26.55
2023-04-28T16:42:40.671Z,26.53
2023-04-28T16:45:08.858Z,26.92
2023-04-28T16:47:36.472Z,26.80
2023-04-28T16:50:04.534Z,25.98
2023-04-28T16:52:33.338Z,25.66
2023-04-28T16:55:02.392Z,25.29
2023-04-28T16:57:30.012Z,25.52
2023-04-28T16:59:57.994Z,26.23
2023-04-28T17:02:26.403Z,26.28
2023-04-28T17:04:54.529Z,26.13
2023-04-28T17:07:24.086Z,26.19
2023-04-28T17:09:54.060Z,26.05
2023-04-28T17:12:23.442Z,26.13
2023-04-28T17:14:52.990Z,26.11
2023-04-28T17:17:20.578Z,26.07
2023-04-28T17:19:48.615Z,25.99
2023-04-28T17:22:16.350Z,25.67
2023-04-28T17:24:45.667Z,25.68
2023-04-28T17:27:14.844Z,25.73
2023-04-28T17:29:43.556Z,25.71
2023-04-28T17:32:11.233Z,25.71
2023-04-28T17:34:39.277Z,25.77
2023-04-28T17:37:07.114Z,25.76
2023-04-28T17:39:34.965Z,25.74
2023-04-28T17:42:03.849Z,25.34
2023-04-28T17:44:32.993Z,25.27
2023-04-28T17:47:01.466Z,25.25
2023-04-28T17:49:32.128Z,25.15
2023-04-28T17:51:59.709Z,25.24
2023-04-28T17:54:28.078Z,25.09
2023-04-28T17:56:56.003Z,25.11
2023-04-28T17:59:24.288Z,25.07
2023-04-28T18:01:53.993Z,25.07
2023-04-28T18:04:22.939Z,24.75
2023-04-28T18:06:50.567Z,24.76
2023-04-28T18:09:18.438Z,24.80
2023-04-28T18:11:46.116Z,24.76
2023-04-28T18:14:15.736Z,24.65
2023-04-28T18:16:43.355Z,24.65
2023-04-28T18:19:11.289Z,24.66
2023-04-28T18:21:38.947Z,24.41
2023-04-28T18:24:07.641Z,24.33
2023-04-28T18:26:35.179Z,24.20
2023-04-28T18:29:03.115Z,24.21
2023-04-28T18:31:30.791Z,24.17
2023-04-28T18:34:00.138Z,24.04
2023-04-28T18:36:27.895Z,24.07
2023-04-28T18:38:56.153Z,24.17
2023-04-28T18:41:23.948Z,23.80
2023-04-28T18:43:52.086Z,23.75
2023-04-28T18:46:19.900Z,23.62
2023-04-28T18:48:48.947Z,23.48
2023-04-28T18:51:16.634Z,23.09
2023-04-28T18:53:44.488Z,23.32
2023-04-28T18:56:12.155Z,23.10
2023-04-28T18:58:42.864Z,23.02
2023-04-28T19:01:16.200Z,23.11
2023-04-28T19:03:44.969Z,23.21
2023-04-28T19:06:14.739Z,23.40
2023-04-28T19:12:27.920Z,22.47
2023-04-28T19:14:55.942Z,22.82
2023-04-28T19:17:24.964Z,22.72
2023-04-28T19:19:54.830Z,22.36
2023-04-28T19:22:38.566Z,22.51
2023-04-28T19:25:07.222Z,22.51
2023-04-28T19:27:35.827Z,22.38
2023-04-28T19:30:04.739Z,22.38
2023-04-28T19:32:32.785Z,22.18
2023-04-28T19:35:00.522Z,22.44
2023-04-28T19:37:28.507Z,22.48
2023-04-28T19:39:56.100Z,22.21
2023-04-28T19:42:23.918Z,22.23
2023-04-28T19:44:55.792Z,22.26
2023-04-28T19:47:24.357Z,22.24
2023-04-28T19:49:52.734Z,22.13
2023-04-28T19:52:22.099Z,22.32
2023-04-28T19:54:50.075Z,22.23
2023-04-28T19:59:45.658Z,22.07
2023-04-28T20:02:14.239Z,21.90
2023-04-28T20:04:42.162Z,21.85
2023-04-28T20:07:11.647Z,21.93
2023-04-28T20:09:39.192Z,21.67
2023-04-28T20:12:08.827Z,21.78
2023-04-28T20:14:37.480Z,21.73
2023-04-28T20:17:05.801Z,21.63
2023-04-28T20:19:33.542Z,21.45
2023-04-28T20:22:08.139Z,21.33
2023-04-28T20:24:37.427Z,21.30
2023-04-28T20:27:05.462Z,21.42
2023-04-28T20:29:35.250Z,21.33
2023-04-28T20:32:03.703Z,21.45
2023-04-28T20:34:32.457Z,21.40
2023-04-28T20:37:03.485Z,21.28
2023-04-28T20:39:31.300Z,21.40
2023-04-28T20:42:00.998Z,21.32
2023-04-28T20:44:28.645Z,21.19
2023-04-28T20:46:57.342Z,21.24
2023-04-28T20:49:25.404Z,21.11
2023-04-28T20:51:53.623Z,21.07
2023-04-28T20:54:21.288Z,21.05
2023-04-28T20:56:49.262Z,21.00
2023-04-28T20:59:16.936Z,20.96
2023-04-28T21:01:45.007Z,21.03
2023-04-28T21:04:12.846Z,21.08
2023-04-28T21:06:40.877Z,20.79
2023-04-28T21:09:08.618Z,20.81
2023-04-28T21:11:36.614Z,21.08
2023-04-28T21:14:04.292Z,20.88
2023-04-28T21:16:33.214Z,20.89
2023-04-28T21:19:01.359Z,20.94
2023-04-28T21:21:29.825Z,20.90
2023-04-28T21:23:57.464Z,20.85
2023-04-28T21:26:27.266Z,20.75
2023-04-28T21:28:56.580Z,20.52
2023-04-28T21:31:25.783Z,20.52
2023-04-28T21:33:53.692Z,20.65
2023-04-28T21:36:22.648Z,20.46
2023-04-28T21:38:50.295Z,20.68
2023-04-28T21:41:21.592Z,20.37
2023-04-28T21:43:49.323Z,19.75
2023-04-28T21:46:19.283Z,19.88
2023-04-28T21:48:47.395Z,19.74
2023-04-28T21:51:15.364Z,19.64
2023-04-28T21:53:43.242Z,19.85
2023-04-28T21:56:12.056Z,19.83
2023-04-28T21:58:39.783Z,19.46
2023-04-28T22:01:09.015Z,19.40
2023-04-28T22:03:39.370Z,19.59
2023-04-28T22:06:07.391Z,19.54
2023-04-28T22:08:35.039Z,19.35
2023-04-28T22:11:04.377Z,19.30
2023-04-28T22:13:31.869Z,19.48
2023-04-28T22:16:02.205Z,19.53
2023-04-28T22:18:29.741Z,19.72
2023-04-28T22:20:57.620Z,19.42
2023-04-28T22:23:25.321Z,19.54
2023-04-28T22:25:53.265Z,19.57
2023-04-28T22:28:20.792Z,19.27
2023-04-28T22:30:48.728Z,19.43
2023-04-28T22:33:16.286Z,19.43
2023-04-28T22:35:44.132Z,19.65
2023-04-28T22:38:11.764Z,19.62
2023-04-28T22:40:39.725Z,19.60
2023-04-28T22:43:07.243Z,19.31
2023-04-28T22:45:36.117Z,19.11
2023-04-28T22:48:03.857Z,19.03
2023-04-28T22:50:32.933Z,19.12
2023-04-28T22:53:00.640Z,19.14
2023-04-28T22:55:28.601Z,19.19
2023-04-28T22:57:56.526Z,19.50
2023-04-28T23:00:24.366Z,19.43
2023-04-28T23:02:52.278Z,19.73
2023-04-28T23:05:20.138Z,19.95
2023-04-28T23:07:47.649Z,19.89
2023-04-28T23:10:15.719Z,19.79
2023-04-28T23:12:43.650Z,19.77
2023-04-28T23:15:11.700Z,19.68
2023-04-28T23:17:39.295Z,19.59
2023-04-28T23:20:07.606Z,19.60
2023-04-28T23:22:35.150Z,19.27
2023-04-28T23:25:04.581Z,19.28
2023-04-28T23:27:32.261Z,19.22
2023-04-28T23:30:00.369Z,19.18
2023-04-28T23:32:27.983Z,19.47
2023-04-28T23:34:55.878Z,19.24
2023-04-28T23:37:23.524Z,19.39
2023-04-28T23:39:51.729Z,19.11
2023-04-28T23:42:20.455Z,18.78
2023-04-28T23:44:48.337Z,18.95
2023-04-28T23:47:15.911Z,18.75
2023-04-28T23:49:43.807Z,18.72
2023-04-28T23:52:11.659Z,18.64
2023-04-28T23:54:39.459Z,18.88
2023-04-28T23:57:06.998Z,19.08
2023-04-28T23:59:34.850Z,18.88
